Pioneer, New York
Current Conditions -  °F | °C
As of 4:51 AM on Thursday 23 Oct 2014 (Local Time) from KALB Reporting Station
Light Rain Light Rain  
Wind Chill:   Ceiling: 2700
Heat Index:   Visibility: 9mi
Dew Point:   Wind: 12mph
Humidity: 90%   Direction: 360°N
Pressure: 29.86"   Gusts: NA
Location:  43.002°N, 73.8759°W
Report Text: KALB 230851Z 36010KT 9SM -RA SCT011 OVC027 08/07 A2986 RMK AO2 SLP114 P0012 60040 T00830067 58014
Loading
Personal Weather Stations






























Interactive Weather Map
Tropical Storm Tracking
New forecast layout! Learn more

10-Day Weather Forecast

Advertisements
Track Severe Weather on mobile